sensor_id;sensor_type;location;lat;lon;timestamp;pressure;altitude;pressure_sealevel;temperature;humidity
19286;BME280;9776;50.798;6.430;2024-01-06T00:00:57;98912.78;;;8.15;73.19
19286;BME280;9776;50.798;6.430;2024-01-06T00:03:24;98914.75;;;8.13;73.28
19286;BME280;9776;50.798;6.430;2024-01-06T00:05:51;98914.59;;;8.07;73.38
19286;BME280;9776;50.798;6.430;2024-01-06T00:08:17;98923.13;;;8.09;73.52
19286;BME280;9776;50.798;6.430;2024-01-06T00:10:44;98916.25;;;8.08;73.57
19286;BME280;9776;50.798;6.430;2024-01-06T00:13:11;98916.91;;;8.02;73.66
19286;BME280;9776;50.798;6.430;2024-01-06T00:15:39;98914.94;;;8.04;73.63
19286;BME280;9776;50.798;6.430;2024-01-06T00:18:06;98917.56;;;8.04;73.57
19286;BME280;9776;50.798;6.430;2024-01-06T00:20:33;98918.72;;;8.01;73.50
19286;BME280;9776;50.798;6.430;2024-01-06T00:23:00;98922.19;;;8.02;73.58
19286;BME280;9776;50.798;6.430;2024-01-06T00:25:27;98924.13;;;7.99;73.86
19286;BME280;9776;50.798;6.430;2024-01-06T00:27:53;98934.97;;;7.96;73.75
19286;BME280;9776;50.798;6.430;2024-01-06T00:30:20;98932.72;;;7.93;74.09
19286;BME280;9776;50.798;6.430;2024-01-06T00:32:49;98928.41;;;8.00;73.87
19286;BME280;9776;50.798;6.430;2024-01-06T00:35:16;98933.97;;;8.06;73.84
19286;BME280;9776;50.798;6.430;2024-01-06T00:37:42;98939.22;;;8.06;73.69
19286;BME280;9776;50.798;6.430;2024-01-06T00:40:10;98932.03;;;8.08;73.85
19286;BME280;9776;50.798;6.430;2024-01-06T00:42:39;98936.94;;;8.02;73.94
19286;BME280;9776;50.798;6.430;2024-01-06T00:45:07;98940.56;;;8.02;73.94
19286;BME280;9776;50.798;6.430;2024-01-06T00:47:37;98938.78;;;8.02;74.08
19286;BME280;9776;50.798;6.430;2024-01-06T00:50:24;98938.28;;;7.98;73.96
19286;BME280;9776;50.798;6.430;2024-01-06T00:52:56;98934.63;;;7.99;74.30
19286;BME280;9776;50.798;6.430;2024-01-06T00:55:23;98930.69;;;8.04;74.32
19286;BME280;9776;50.798;6.430;2024-01-06T00:57:55;98932.66;;;8.10;74.03
19286;BME280;9776;50.798;6.430;2024-01-06T01:00:27;98940.72;;;8.16;74.00
19286;BME280;9776;50.798;6.430;2024-01-06T01:03:09;98939.88;;;8.16;73.99
19286;BME280;9776;50.798;6.430;2024-01-06T01:06:03;98940.53;;;8.10;74.12
19286;BME280;9776;50.798;6.430;2024-01-06T01:08:44;98946.78;;;8.09;74.40
19286;BME280;9776;50.798;6.430;2024-01-06T01:11:18;98951.38;;;8.07;74.55
19286;BME280;9776;50.798;6.430;2024-01-06T01:13:46;98945.81;;;8.10;74.59
19286;BME280;9776;50.798;6.430;2024-01-06T01:16:13;98947.13;;;8.14;74.61
19286;BME280;9776;50.798;6.430;2024-01-06T01:18:40;98944.81;;;8.19;74.42
19286;BME280;9776;50.798;6.430;2024-01-06T01:21:11;98950.38;;;8.24;74.50
19286;BME280;9776;50.798;6.430;2024-01-06T01:23:38;98949.53;;;8.23;74.65
19286;BME280;9776;50.798;6.430;2024-01-06T01:26:10;98945.78;;;8.18;74.65
19286;BME280;9776;50.798;6.430;2024-01-06T01:28:43;98951.88;;;8.18;75.00
19286;BME280;9776;50.798;6.430;2024-01-06T01:31:10;98946.09;;;8.23;74.82
19286;BME280;9776;50.798;6.430;2024-01-06T01:33:37;98954.34;;;8.28;74.79
19286;BME280;9776;50.798;6.430;2024-01-06T01:36:04;98953.69;;;8.34;74.85
19286;BME280;9776;50.798;6.430;2024-01-06T01:38:32;98961.38;;;8.35;74.68
19286;BME280;9776;50.798;6.430;2024-01-06T01:40:59;98958.44;;;8.30;75.12
19286;BME280;9776;50.798;6.430;2024-01-06T01:43:25;98968.13;;;8.30;75.06
19286;BME280;9776;50.798;6.430;2024-01-06T01:45:54;98971.06;;;8.27;75.34
19286;BME280;9776;50.798;6.430;2024-01-06T01:48:22;98976.00;;;8.30;75.27
19286;BME280;9776;50.798;6.430;2024-01-06T01:50:49;98978.66;;;8.30;75.30
19286;BME280;9776;50.798;6.430;2024-01-06T01:53:17;98981.75;;;8.33;75.49
19286;BME280;9776;50.798;6.430;2024-01-06T01:55:47;98986.00;;;8.34;75.52
19286;BME280;9776;50.798;6.430;2024-01-06T01:58:16;98978.28;;;8.41;75.27
19286;BME280;9776;50.798;6.430;2024-01-06T02:00:42;98975.66;;;8.41;75.51
19286;BME280;9776;50.798;6.430;2024-01-06T02:03:11;98983.84;;;8.46;75.55
19286;BME280;9776;50.798;6.430;2024-01-06T02:05:39;98975.47;;;8.50;75.50
19286;BME280;9776;50.798;6.430;2024-01-06T02:08:06;98986.63;;;8.52;75.49
19286;BME280;9776;50.798;6.430;2024-01-06T02:10:33;98985.47;;;8.55;75.68
19286;BME280;9776;50.798;6.430;2024-01-06T02:13:09;98992.19;;;8.57;75.29
19286;BME280;9776;50.798;6.430;2024-01-06T02:15:36;98985.97;;;8.59;75.51
19286;BME280;9776;50.798;6.430;2024-01-06T02:18:04;98993.50;;;8.62;75.76
19286;BME280;9776;50.798;6.430;2024-01-06T02:20:34;99000.88;;;8.66;75.63
19286;BME280;9776;50.798;6.430;2024-01-06T02:23:03;98996.44;;;8.67;75.61
19286;BME280;9776;50.798;6.430;2024-01-06T02:25:30;98999.25;;;8.65;75.97
19286;BME280;9776;50.798;6.430;2024-01-06T02:27:57;99010.25;;;8.69;75.92
19286;BME280;9776;50.798;6.430;2024-01-06T02:30:23;99011.06;;;8.69;75.94
19286;BME280;9776;50.798;6.430;2024-01-06T02:32:50;99013.88;;;8.68;75.96
19286;BME280;9776;50.798;6.430;2024-01-06T02:35:17;99012.56;;;8.64;76.11
19286;BME280;9776;50.798;6.430;2024-01-06T02:37:44;99017.66;;;8.65;76.32
19286;BME280;9776;50.798;6.430;2024-01-06T02:40:13;99030.78;;;8.73;76.21
19286;BME280;9776;50.798;6.430;2024-01-06T02:42:40;99024.06;;;8.71;76.03
19286;BME280;9776;50.798;6.430;2024-01-06T02:45:08;99022.25;;;8.71;76.13
19286;BME280;9776;50.798;6.430;2024-01-06T02:47:35;99028.66;;;8.69;76.34
19286;BME280;9776;50.798;6.430;2024-01-06T02:50:02;99030.16;;;8.63;76.64
19286;BME280;9776;50.798;6.430;2024-01-06T02:52:29;99027.06;;;8.60;76.59
19286;BME280;9776;50.798;6.430;2024-01-06T02:54:56;99036.56;;;8.61;76.82
19286;BME280;9776;50.798;6.430;2024-01-06T02:57:24;99031.50;;;8.59;76.53
19286;BME280;9776;50.798;6.430;2024-01-06T02:59:51;99040.03;;;8.61;76.61
19286;BME280;9776;50.798;6.430;2024-01-06T03:02:18;99037.41;;;8.61;76.76
19286;BME280;9776;50.798;6.430;2024-01-06T03:04:45;99043.97;;;8.65;76.59
19286;BME280;9776;50.798;6.430;2024-01-06T03:07:12;99051.53;;;8.68;76.47
19286;BME280;9776;50.798;6.430;2024-01-06T03:09:39;99046.91;;;8.70;76.57
19286;BME280;9776;50.798;6.430;2024-01-06T03:12:06;99049.22;;;8.73;76.52
19286;BME280;9776;50.798;6.430;2024-01-06T03:14:35;99053.31;;;8.76;76.30
19286;BME280;9776;50.798;6.430;2024-01-06T03:17:02;99048.88;;;8.76;76.38
19286;BME280;9776;50.798;6.430;2024-01-06T03:19:29;99050.03;;;8.74;76.45
19286;BME280;9776;50.798;6.430;2024-01-06T03:21:56;99055.09;;;8.75;76.59
19286;BME280;9776;50.798;6.430;2024-01-06T03:24:25;99062.19;;;8.75;76.44
19286;BME280;9776;50.798;6.430;2024-01-06T03:26:52;99061.69;;;8.79;76.39
19286;BME280;9776;50.798;6.430;2024-01-06T03:29:19;99061.69;;;8.79;76.39
19286;BME280;9776;50.798;6.430;2024-01-06T03:31:47;99063.16;;;8.82;76.33
19286;BME280;9776;50.798;6.430;2024-01-06T03:34:15;99068.75;;;8.79;76.56
19286;BME280;9776;50.798;6.430;2024-01-06T03:36:42;99064.31;;;8.79;76.50
19286;BME280;9776;50.798;6.430;2024-01-06T03:39:10;99065.16;;;8.80;76.55
19286;BME280;9776;50.798;6.430;2024-01-06T03:41:41;99070.22;;;8.81;76.41
19286;BME280;9776;50.798;6.430;2024-01-06T03:44:13;99064.81;;;8.75;76.55
19286;BME280;9776;50.798;6.430;2024-01-06T03:46:48;99068.75;;;8.79;76.53
19286;BME280;9776;50.798;6.430;2024-01-06T03:49:15;99064.13;;;8.81;76.55
19286;BME280;9776;50.798;6.430;2024-01-06T03:51:44;99069.25;;;8.82;76.49
19286;BME280;9776;50.798;6.430;2024-01-06T03:54:14;99063.31;;;8.80;76.36
19286;BME280;9776;50.798;6.430;2024-01-06T03:56:43;99066.94;;;8.79;76.43
19286;BME280;9776;50.798;6.430;2024-01-06T03:59:10;99067.09;;;8.78;76.46
19286;BME280;9776;50.798;6.430;2024-01-06T04:01:43;99074.00;;;8.79;76.42
19286;BME280;9776;50.798;6.430;2024-01-06T04:04:14;99071.38;;;8.79;76.49
19286;BME280;9776;50.798;6.430;2024-01-06T04:06:44;99080.09;;;8.79;76.41
19286;BME280;9776;50.798;6.430;2024-01-06T04:09:11;99072.03;;;8.81;76.32
19286;BME280;9776;50.798;6.430;2024-01-06T04:11:38;99077.28;;;8.81;76.41
19286;BME280;9776;50.798;6.430;2024-01-06T04:14:05;99088.47;;;8.75;76.35
19286;BME280;9776;50.798;6.430;2024-01-06T04:16:32;99088.19;;;8.62;76.60
19286;BME280;9776;50.798;6.430;2024-01-06T04:18:59;99095.28;;;8.45;77.11
19286;BME280;9776;50.798;6.430;2024-01-06T04:21:28;99095.63;;;8.34;77.42
19286;BME280;9776;50.798;6.430;2024-01-06T04:23:55;99102.16;;;8.22;77.48
19286;BME280;9776;50.798;6.430;2024-01-06T04:26:22;99102.81;;;8.16;77.84
19286;BME280;9776;50.798;6.430;2024-01-06T04:28:49;99113.00;;;8.11;77.79
19286;BME280;9776;50.798;6.430;2024-01-06T04:31:16;99104.63;;;8.07;77.84
19286;BME280;9776;50.798;6.430;2024-01-06T04:33:42;99117.25;;;8.04;77.81
19286;BME280;9776;50.798;6.430;2024-01-06T04:36:09;99106.91;;;8.02;77.76
19286;BME280;9776;50.798;6.430;2024-01-06T04:38:37;99116.44;;;8.03;77.93
19286;BME280;9776;50.798;6.430;2024-01-06T04:41:05;99114.13;;;8.00;77.78
19286;BME280;9776;50.798;6.430;2024-01-06T04:43:32;99122.19;;;7.98;77.80
19286;BME280;9776;50.798;6.430;2024-01-06T04:45:59;99123.81;;;7.99;77.90
19286;BME280;9776;50.798;6.430;2024-01-06T04:48:26;99116.25;;;7.96;77.58
19286;BME280;9776;50.798;6.430;2024-01-06T04:50:54;99110.97;;;7.88;77.80
19286;BME280;9776;50.798;6.430;2024-01-06T04:53:21;99122.19;;;7.90;77.96
19286;BME280;9776;50.798;6.430;2024-01-06T04:55:49;99122.97;;;7.91;77.74
19286;BME280;9776;50.798;6.430;2024-01-06T04:58:16;99118.53;;;7.91;77.78
19286;BME280;9776;50.798;6.430;2024-01-06T05:00:43;99123.47;;;7.94;77.70
19286;BME280;9776;50.798;6.430;2024-01-06T05:03:10;99125.47;;;8.00;77.51
19286;BME280;9776;50.798;6.430;2024-01-06T05:05:37;99128.75;;;8.02;77.45
19286;BME280;9776;50.798;6.430;2024-01-06T05:08:04;99128.59;;;8.04;77.31
19286;BME280;9776;50.798;6.430;2024-01-06T05:10:31;99137.31;;;8.05;77.62
19286;BME280;9776;50.798;6.430;2024-01-06T05:13:00;99136.47;;;8.04;77.46
19286;BME280;9776;50.798;6.430;2024-01-06T05:15:27;99143.03;;;8.00;77.64
19286;BME280;9776;50.798;6.430;2024-01-06T05:17:54;99137.25;;;7.96;77.82
19286;BME280;9776;50.798;6.430;2024-01-06T05:20:21;99140.25;;;7.93;77.80
19286;BME280;9776;50.798;6.430;2024-01-06T05:22:48;99135.00;;;7.93;77.76
19286;BME280;9776;50.798;6.430;2024-01-06T05:25:17;99147.63;;;7.90;77.72
19286;BME280;9776;50.798;6.430;2024-01-06T05:27:44;99147.44;;;7.91;77.82
19286;BME280;9776;50.798;6.430;2024-01-06T05:30:13;99150.06;;;7.91;77.95
19286;BME280;9776;50.798;6.430;2024-01-06T05:32:40;99155.66;;;7.88;77.92
19286;BME280;9776;50.798;6.430;2024-01-06T05:35:07;99160.91;;;7.88;78.05
19286;BME280;9776;50.798;6.430;2024-01-06T05:37:34;99159.59;;;7.84;77.91
19286;BME280;9776;50.798;6.430;2024-01-06T05:40:01;99168.94;;;7.79;78.11
19286;BME280;9776;50.798;6.430;2024-01-06T05:42:30;99169.25;;;7.76;78.12
19286;BME280;9776;50.798;6.430;2024-01-06T05:44:57;99173.69;;;7.75;78.17
19286;BME280;9776;50.798;6.430;2024-01-06T05:47:25;99177.78;;;7.78;78.13
19286;BME280;9776;50.798;6.430;2024-01-06T05:49:52;99180.25;;;7.79;77.98
19286;BME280;9776;50.798;6.430;2024-01-06T05:52:19;99176.13;;;7.77;77.91
19286;BME280;9776;50.798;6.430;2024-01-06T05:54:45;99185.81;;;7.76;78.08
19286;BME280;9776;50.798;6.430;2024-01-06T05:57:12;99189.13;;;7.78;78.07
19286;BME280;9776;50.798;6.430;2024-01-06T05:59:39;99197.66;;;7.80;78.02
19286;BME280;9776;50.798;6.430;2024-01-06T06:02:06;99192.94;;;7.92;77.63
19286;BME280;9776;50.798;6.430;2024-01-06T06:04:35;99196.06;;;7.95;77.62
19286;BME280;9776;50.798;6.430;2024-01-06T06:07:02;99198.50;;;7.89;77.55
19286;BME280;9776;50.798;6.430;2024-01-06T06:09:29;99207.84;;;7.83;77.77
19286;BME280;9776;50.798;6.430;2024-01-06T06:11:56;99201.09;;;7.73;77.74
19286;BME280;9776;50.798;6.430;2024-01-06T06:14:24;99205.16;;;7.67;78.34
19286;BME280;9776;50.798;6.430;2024-01-06T06:16:51;99205.31;;;7.66;78.22
19286;BME280;9776;50.798;6.430;2024-01-06T06:19:18;99208.75;;;7.58;78.18
19286;BME280;9776;50.798;6.430;2024-01-06T06:21:48;99213.47;;;7.55;78.29
19286;BME280;9776;50.798;6.430;2024-01-06T06:24:15;99214.63;;;7.52;78.37
19286;BME280;9776;50.798;6.430;2024-01-06T06:26:43;99223.47;;;7.51;78.31
19286;BME280;9776;50.798;6.430;2024-01-06T06:29:10;99224.59;;;7.49;78.13
19286;BME280;9776;50.798;6.430;2024-01-06T06:31:37;99232.66;;;7.47;78.10
19286;BME280;9776;50.798;6.430;2024-01-06T06:34:04;99231.13;;;7.44;78.05
19286;BME280;9776;50.798;6.430;2024-01-06T06:36:32;99244.09;;;7.38;78.25
19286;BME280;9776;50.798;6.430;2024-01-06T06:39:00;99247.97;;;7.34;78.42
19286;BME280;9776;50.798;6.430;2024-01-06T06:41:29;99250.25;;;7.29;78.43
19286;BME280;9776;50.798;6.430;2024-01-06T06:43:57;99257.47;;;7.27;78.31
19286;BME280;9776;50.798;6.430;2024-01-06T06:46:34;99255.94;;;7.24;78.47
19286;BME280;9776;50.798;6.430;2024-01-06T06:49:06;99261.88;;;7.26;78.49
19286;BME280;9776;50.798;6.430;2024-01-06T06:51:37;99274.53;;;7.31;78.28
19286;BME280;9776;50.798;6.430;2024-01-06T06:54:23;99278.84;;;7.40;77.88
19286;BME280;9776;50.798;6.430;2024-01-06T06:56:52;99275.97;;;7.51;77.64
19286;BME280;9776;50.798;6.430;2024-01-06T06:59:19;99288.84;;;7.62;77.17
19286;BME280;9776;50.798;6.430;2024-01-06T07:01:46;99294.47;;;7.67;77.13
19286;BME280;9776;50.798;6.430;2024-01-06T07:04:14;99293.78;;;7.65;76.92
19286;BME280;9776;50.798;6.430;2024-01-06T07:06:41;99305.94;;;7.66;77.21
19286;BME280;9776;50.798;6.430;2024-01-06T07:09:08;99301.47;;;7.59;77.22
19286;BME280;9776;50.798;6.430;2024-01-06T07:11:37;99305.47;;;7.45;77.41
19286;BME280;9776;50.798;6.430;2024-01-06T07:14:05;99308.09;;;7.45;77.41
19286;BME280;9776;50.798;6.430;2024-01-06T07:16:33;99317.09;;;7.42;77.39
19286;BME280;9776;50.798;6.430;2024-01-06T07:19:00;99325.09;;;7.33;77.74
19286;BME280;9776;50.798;6.430;2024-01-06T07:21:28;99333.75;;;7.33;77.63
19286;BME280;9776;50.798;6.430;2024-01-06T07:23:55;99343.31;;;7.34;77.43
19286;BME280;9776;50.798;6.430;2024-01-06T07:26:22;99344.38;;;7.24;77.58
19286;BME280;9776;50.798;6.430;2024-01-06T07:28:51;99347.91;;;7.15;78.07
19286;BME280;9776;50.798;6.430;2024-01-06T07:31:19;99352.63;;;7.11;77.96
19286;BME280;9776;50.798;6.430;2024-01-06T07:33:47;99352.41;;;7.05;78.00
19286;BME280;9776;50.798;6.430;2024-01-06T07:36:14;99359.53;;;7.12;77.63
19286;BME280;9776;50.798;6.430;2024-01-06T07:38:43;99364.31;;;7.17;77.50
19286;BME280;9776;50.798;6.430;2024-01-06T07:41:11;99369.03;;;7.13;77.52
19286;BME280;9776;50.798;6.430;2024-01-06T07:43:38;99370.53;;;7.16;77.37
19286;BME280;9776;50.798;6.430;2024-01-06T07:46:07;99369.13;;;7.21;77.07
19286;BME280;9776;50.798;6.430;2024-01-06T07:48:35;99370.91;;;7.21;77.01
19286;BME280;9776;50.798;6.430;2024-01-06T07:51:02;99366.41;;;7.13;77.26
19286;BME280;9776;50.798;6.430;2024-01-06T07:53:30;99377.81;;;7.04;77.39
19286;BME280;9776;50.798;6.430;2024-01-06T07:55:57;99378.72;;;6.95;77.66
19286;BME280;9776;50.798;6.430;2024-01-06T07:58:24;99379.31;;;6.89;77.59
19286;BME280;9776;50.798;6.430;2024-01-06T08:00:53;99382.66;;;6.81;77.66
19286;BME280;9776;50.798;6.430;2024-01-06T08:03:22;99384.78;;;6.78;77.91
19286;BME280;9776;50.798;6.430;2024-01-06T08:05:50;99392.94;;;6.75;77.98
19286;BME280;9776;50.798;6.430;2024-01-06T08:08:18;99400.41;;;6.70;78.09
19286;BME280;9776;50.798;6.430;2024-01-06T08:10:46;99399.06;;;6.66;77.96
19286;BME280;9776;50.798;6.430;2024-01-06T08:13:14;99411.25;;;6.57;78.07
19286;BME280;9776;50.798;6.430;2024-01-06T08:15:42;99407.28;;;6.53;78.31
19286;BME280;9776;50.798;6.430;2024-01-06T08:18:09;99413.63;;;6.51;78.22
19286;BME280;9776;50.798;6.430;2024-01-06T08:20:38;99420.66;;;6.50;78.24
19286;BME280;9776;50.798;6.430;2024-01-06T08:23:05;99424.94;;;6.51;78.10
19286;BME280;9776;50.798;6.430;2024-01-06T08:25:33;99430.88;;;6.53;78.19
19286;BME280;9776;50.798;6.430;2024-01-06T08:28:00;99433.22;;;6.47;78.21
19286;BME280;9776;50.798;6.430;2024-01-06T08:30:28;99435.63;;;6.40;78.32
19286;BME280;9776;50.798;6.430;2024-01-06T08:32:55;99450.25;;;6.33;78.17
19286;BME280;9776;50.798;6.430;2024-01-06T08:35:24;99450.16;;;6.25;78.44
19286;BME280;9776;50.798;6.430;2024-01-06T08:37:53;99456.06;;;6.27;78.35
19286;BME280;9776;50.798;6.430;2024-01-06T08:40:22;99461.59;;;6.24;78.32
19286;BME280;9776;50.798;6.430;2024-01-06T08:42:49;99466.56;;;6.27;78.39
19286;BME280;9776;50.798;6.430;2024-01-06T08:45:17;99471.50;;;6.30;78.04
19286;BME280;9776;50.798;6.430;2024-01-06T08:47:46;99474.00;;;6.32;78.05
19286;BME280;9776;50.798;6.430;2024-01-06T08:50:15;99477.97;;;6.36;77.98
19286;BME280;9776;50.798;6.430;2024-01-06T08:52:42;99483.66;;;6.31;77.96
19286;BME280;9776;50.798;6.430;2024-01-06T08:55:11;99485.00;;;6.35;77.97
19286;BME280;9776;50.798;6.430;2024-01-06T08:57:39;99490.25;;;6.35;78.01
19286;BME280;9776;50.798;6.430;2024-01-06T09:00:07;99490.38;;;6.43;77.83
19286;BME280;9776;50.798;6.430;2024-01-06T09:02:35;99501.81;;;6.42;77.64
19286;BME280;9776;50.798;6.430;2024-01-06T09:05:02;99505.13;;;6.44;77.75
19286;BME280;9776;50.798;6.430;2024-01-06T09:07:30;99502.91;;;6.49;77.53
19286;BME280;9776;50.798;6.430;2024-01-06T09:09:57;99503.88;;;6.48;77.58
19286;BME280;9776;50.798;6.430;2024-01-06T09:12:26;99500.28;;;6.49;77.36
19286;BME280;9776;50.798;6.430;2024-01-06T09:14:55;99505.81;;;6.46;77.56
19286;BME280;9776;50.798;6.430;2024-01-06T09:17:23;99517.25;;;6.45;77.59
19286;BME280;9776;50.798;6.430;2024-01-06T09:19:50;99515.06;;;6.41;77.61
19286;BME280;9776;50.798;6.430;2024-01-06T09:22:19;99512.75;;;6.38;77.60
19286;BME280;9776;50.798;6.430;2024-01-06T09:24:47;99518.13;;;6.36;77.64
19286;BME280;9776;50.798;6.430;2024-01-06T09:27:14;99522.53;;;6.36;77.83
19286;BME280;9776;50.798;6.430;2024-01-06T09:29:43;99531.09;;;6.38;77.67
19286;BME280;9776;50.798;6.430;2024-01-06T09:32:11;99530.16;;;6.66;76.61
19286;BME280;9776;50.798;6.430;2024-01-06T09:34:39;99530.38;;;6.45;77.74
19286;BME280;9776;50.798;6.430;2024-01-06T09:37:06;99545.28;;;6.45;77.79
19286;BME280;9776;50.798;6.430;2024-01-06T09:39:34;99545.16;;;6.46;77.74
19286;BME280;9776;50.798;6.430;2024-01-06T09:42:07;99546.94;;;6.46;77.60
19286;BME280;9776;50.798;6.430;2024-01-06T09:44:37;99556.44;;;6.47;77.57
19286;BME280;9776;50.798;6.430;2024-01-06T09:47:27;99557.53;;;6.44;77.21
19286;BME280;9776;50.798;6.430;2024-01-06T09:50:01;99566.50;;;6.51;77.28
19286;BME280;9776;50.798;6.430;2024-01-06T09:52:32;99565.50;;;6.52;77.06
19286;BME280;9776;50.798;6.430;2024-01-06T09:55:00;99567.84;;;6.55;76.93
19286;BME280;9776;50.798;6.430;2024-01-06T09:57:29;99577.09;;;6.59;76.90
19286;BME280;9776;50.798;6.430;2024-01-06T10:00:03;99577.53;;;6.55;76.98
19286;BME280;9776;50.798;6.430;2024-01-06T10:02:37;99572.41;;;6.53;76.87
19286;BME280;9776;50.798;6.430;2024-01-06T10:05:05;99579.63;;;6.51;76.88
19286;BME280;9776;50.798;6.430;2024-01-06T10:07:34;99575.31;;;6.50;77.01
19286;BME280;9776;50.798;6.430;2024-01-06T10:10:01;99578.78;;;6.51;76.88
19286;BME280;9776;50.798;6.430;2024-01-06T10:12:28;99578.63;;;6.52;76.81
19286;BME280;9776;50.798;6.430;2024-01-06T10:14:56;99573.25;;;6.54;76.77
19286;BME280;9776;50.798;6.430;2024-01-06T10:17:24;99580.28;;;6.53;76.70
19286;BME280;9776;50.798;6.430;2024-01-06T10:19:53;99577.66;;;6.53;76.73
19286;BME280;9776;50.798;6.430;2024-01-06T10:22:22;99593.41;;;6.53;76.52
19286;BME280;9776;50.798;6.430;2024-01-06T10:25:03;99573.97;;;6.46;76.53
19286;BME280;9776;50.798;6.430;2024-01-06T10:27:35;99578.38;;;6.46;76.86
19286;BME280;9776;50.798;6.430;2024-01-06T10:30:14;99580.72;;;6.49;76.69
19286;BME280;9776;50.798;6.430;2024-01-06T10:32:55;99577.94;;;6.50;76.61
19286;BME280;9776;50.798;6.430;2024-01-06T10:35:24;99572.97;;;6.47;76.44
19286;BME280;9776;50.798;6.430;2024-01-06T10:37:51;99579.22;;;6.46;76.50
19286;BME280;9776;50.798;6.430;2024-01-06T10:40:18;99579.22;;;6.46;76.46
19286;BME280;9776;50.798;6.430;2024-01-06T10:42:45;99580.84;;;6.47;76.54
19286;BME280;9776;50.798;6.430;2024-01-06T10:45:13;99585.13;;;6.48;76.28
19286;BME280;9776;50.798;6.430;2024-01-06T10:47:41;99581.97;;;6.45;76.29
19286;BME280;9776;50.798;6.430;2024-01-06T10:50:09;99582.41;;;6.40;76.56
19286;BME280;9776;50.798;6.430;2024-01-06T10:52:38;99584.31;;;6.38;76.55
19286;BME280;9776;50.798;6.430;2024-01-06T10:55:06;99589.72;;;6.37;76.48
19286;BME280;9776;50.798;6.430;2024-01-06T10:57:33;99586.81;;;6.40;76.47
19286;BME280;9776;50.798;6.430;2024-01-06T11:00:01;99588.75;;;6.38;76.22
19286;BME280;9776;50.798;6.430;2024-01-06T11:02:31;99592.47;;;6.35;76.42
19286;BME280;9776;50.798;6.430;2024-01-06T11:04:58;99591.78;;;6.33;76.39
19286;BME280;9776;50.798;6.430;2024-01-06T11:07:25;99593.28;;;6.36;76.36
19286;BME280;9776;50.798;6.430;2024-01-06T11:09:56;99594.00;;;6.38;76.24
19286;BME280;9776;50.798;6.430;2024-01-06T11:12:24;99597.03;;;6.33;76.27
19286;BME280;9776;50.798;6.430;2024-01-06T11:14:52;99590.94;;;6.33;76.47
19286;BME280;9776;50.798;6.430;2024-01-06T11:17:50;99589.31;;;6.32;76.17
19286;BME280;9776;50.798;6.430;2024-01-06T11:20:19;99590.38;;;6.39;76.32
19286;BME280;9776;50.798;6.430;2024-01-06T11:22:47;99596.19;;;6.42;76.15
19286;BME280;9776;50.798;6.430;2024-01-06T11:25:17;99592.59;;;6.43;76.06
19286;BME280;9776;50.798;6.430;2024-01-06T11:27:45;99593.28;;;6.36;76.37
19286;BME280;9776;50.798;6.430;2024-01-06T11:30:21;99598.97;;;6.31;76.23
19286;BME280;9776;50.798;6.430;2024-01-06T11:32:52;99601.59;;;6.31;76.57
19286;BME280;9776;50.798;6.430;2024-01-06T11:35:22;99592.72;;;6.32;76.47
19286;BME280;9776;50.798;6.430;2024-01-06T11:38:01;99597.03;;;6.33;76.27
19286;BME280;9776;50.798;6.430;2024-01-06T11:40:34;99592.34;;;6.37;76.09
19286;BME280;9776;50.798;6.430;2024-01-06T11:43:04;99592.88;;;6.40;76.23
19286;BME280;9776;50.798;6.430;2024-01-06T11:45:32;99603.38;;;6.40;76.11
19286;BME280;9776;50.798;6.430;2024-01-06T11:47:59;99597.13;;;6.41;76.21
19286;BME280;9776;50.798;6.430;2024-01-06T11:50:28;99596.19;;;6.42;76.14
19286;BME280;9776;50.798;6.430;2024-01-06T11:52:55;99594.50;;;6.41;76.11
19286;BME280;9776;50.798;6.430;2024-01-06T11:55:24;99598.94;;;6.41;76.11
19286;BME280;9776;50.798;6.430;2024-01-06T11:57:54;99591.78;;;6.33;76.12
19286;BME280;9776;50.798;6.430;2024-01-06T12:00:23;99602.25;;;6.33;76.15
19286;BME280;9776;50.798;6.430;2024-01-06T12:02:49;99599.63;;;6.33;76.28
19286;BME280;9776;50.798;6.430;2024-01-06T12:05:22;99603.78;;;6.36;76.33
19286;BME280;9776;50.798;6.430;2024-01-06T12:07:54;99601.72;;;6.39;75.94
19286;BME280;9776;50.798;6.430;2024-01-06T12:10:22;99604.03;;;6.42;75.90
19286;BME280;9776;50.798;6.430;2024-01-06T12:13:01;99599.25;;;6.38;75.78
19286;BME280;9776;50.798;6.430;2024-01-06T12:15:30;99601.03;;;6.37;76.11
19286;BME280;9776;50.798;6.430;2024-01-06T12:17:57;99597.03;;;6.33;75.89
19286;BME280;9776;50.798;6.430;2024-01-06T12:20:37;99602.81;;;6.27;75.94
19286;BME280;9776;50.798;6.430;2024-01-06T12:23:23;99593.03;;;6.29;76.02
19286;BME280;9776;50.798;6.430;2024-01-06T12:25:50;99597.31;;;6.30;75.95
19286;BME280;9776;50.798;6.430;2024-01-06T12:28:19;99603.09;;;6.34;75.82
19286;BME280;9776;50.798;6.430;2024-01-06T12:30:46;99601.97;;;6.36;75.66
19286;BME280;9776;50.798;6.430;2024-01-06T12:33:14;99596.63;;;6.38;75.60
19286;BME280;9776;50.798;6.430;2024-01-06T12:35:41;99596.47;;;6.29;75.53
19286;BME280;9776;50.798;6.430;2024-01-06T12:38:09;99608.88;;;6.27;75.57
19286;BME280;9776;50.798;6.430;2024-01-06T12:40:36;99603.09;;;6.24;75.80
19286;BME280;9776;50.798;6.430;2024-01-06T12:43:04;99604.88;;;6.23;75.56
19286;BME280;9776;50.798;6.430;2024-01-06T12:45:33;99601.47;;;6.23;75.69
19286;BME280;9776;50.798;6.430;2024-01-06T12:48:00;99605.03;;;6.22;75.54
19286;BME280;9776;50.798;6.430;2024-01-06T12:50:27;99610.13;;;6.23;75.57
19286;BME280;9776;50.798;6.430;2024-01-06T12:52:57;99608.22;;;6.16;75.73
19286;BME280;9776;50.798;6.430;2024-01-06T12:55:27;99609.03;;;6.16;75.71
19286;BME280;9776;50.798;6.430;2024-01-06T12:57:54;99610.00;;;6.15;75.66
19286;BME280;9776;50.798;6.430;2024-01-06T13:00:24;99616.91;;;6.16;75.77
19286;BME280;9776;50.798;6.430;2024-01-06T13:02:56;99620.34;;;6.17;75.66
19286;BME280;9776;50.798;6.430;2024-01-06T13:05:23;99620.09;;;6.20;75.69
19286;BME280;9776;50.798;6.430;2024-01-06T13:07:53;99622.81;;;6.18;75.55
19286;BME280;9776;50.798;6.430;2024-01-06T13:10:25;99628.22;;;6.17;75.64
19286;BME280;9776;50.798;6.430;2024-01-06T13:12:53;99625.16;;;6.21;75.70
19286;BME280;9776;50.798;6.430;2024-01-06T13:15:27;99640.50;;;6.26;75.69
19286;BME280;9776;50.798;6.430;2024-01-06T13:17:59;99632.03;;;6.32;75.70
19286;BME280;9776;50.798;6.430;2024-01-06T13:20:29;99636.72;;;6.38;75.53
19286;BME280;9776;50.798;6.430;2024-01-06T13:22:57;99640.34;;;6.27;75.52
19286;BME280;9776;50.798;6.430;2024-01-06T13:25:24;99642.94;;;6.18;76.05
19286;BME280;9776;50.798;6.430;2024-01-06T13:27:53;99637.47;;;6.11;76.11
19286;BME280;9776;50.798;6.430;2024-01-06T13:30:20;99643.09;;;5.97;76.41